Time;durP1;ratioP1;P1;durP2;ratioP2;P2;SDS_P1;SDS_P2;PMS_P1;PMS_P2;Temp;Humidity;BMP_temperature;BMP_pressure;BME280_temperature;BME280_humidity;BME280_pressure;Samples;Min_cycle;Max_cycle;Signal;HPM_P1;HPM_P2
2023/09/30 00:00:13;;;;;;;14.60;5.55;;;;;;;15.49;100.00;102363.13;5045169;28;20044;-65
2023/09/30 00:03:01;;;;;;;14.18;5.95;;;;;;;15.48;100.00;102366.13;5058260;28;20174;-65
2023/09/30 00:05:49;;;;;;;14.75;5.60;;;;;;;15.46;100.00;102368.31;5072858;28;20496;-66
2023/09/30 00:08:39;;;;;;;16.45;6.70;;;;;;;15.47;100.00;102367.25;5074235;28;20044;-66
2023/09/30 00:11:27;;;;;;;14.50;6.10;;;;;;;15.49;100.00;102368.63;5073575;28;20051;-65
2023/09/30 00:14:17;;;;;;;12.82;5.75;;;;;;;15.49;100.00;102368.63;5045387;28;20048;-65
2023/09/30 00:17:05;;;;;;;16.83;6.15;;;;;;;15.50;100.00;102372.19;5072250;28;20080;-65
2023/09/30 00:19:53;;;;;;;14.70;5.45;;;;;;;15.48;100.00;102379.88;5058979;28;20059;-64
2023/09/30 00:22:41;;;;;;;15.07;6.13;;;;;;;15.49;100.00;102389.75;5075046;28;20052;-64
2023/09/30 00:25:29;;;;;;;19.00;7.03;;;;;;;15.50;100.00;102383.19;5065810;28;20144;-65
2023/09/30 00:28:18;;;;;;;15.18;7.28;;;;;;;15.51;100.00;102379.34;5079321;28;20505;-64
2023/09/30 00:31:09;;;;;;;14.88;6.78;;;;;;;15.48;100.00;102375.19;5073008;28;20052;-63
2023/09/30 00:33:58;;;;;;;18.08;7.22;;;;;;;15.47;100.00;102378.22;5073796;28;20052;-64
2023/09/30 00:36:47;;;;;;;16.13;7.28;;;;;;;15.46;100.00;102387.53;5060750;28;20055;-64
2023/09/30 00:39:37;;;;;;;14.27;6.32;;;;;;;15.41;100.00;102396.56;5088666;28;20040;-64
2023/09/30 00:42:25;;;;;;;15.25;6.38;;;;;;;15.38;100.00;102401.78;5071752;28;20051;-64
2023/09/30 00:45:13;;;;;;;14.20;6.15;;;;;;;15.35;100.00;102403.13;5071216;28;20437;-65
2023/09/30 00:48:02;;;;;;;13.68;6.28;;;;;;;15.34;100.00;102396.81;5051678;28;20037;-65
2023/09/30 00:50:50;;;;;;;13.68;5.80;;;;;;;15.37;100.00;102397.34;5058183;28;20598;-63
2023/09/30 00:53:38;;;;;;;11.75;5.80;;;;;;;15.39;100.00;102403.41;5071982;28;20048;-66
2023/09/30 00:56:28;;;;;;;16.17;6.25;;;;;;;15.41;100.00;102401.25;5044256;28;20075;-64
2023/09/30 00:59:16;;;;;;;12.75;5.78;;;;;;;15.38;100.00;102388.03;5039309;28;20186;-64
2023/09/30 01:02:06;;;;;;;16.48;6.90;;;;;;;15.32;100.00;102385.25;5066291;28;20052;-64
2023/09/30 01:04:55;;;;;;;14.55;6.00;;;;;;;15.29;100.00;102383.00;5066542;28;20504;-65
2023/09/30 01:07:43;;;;;;;12.27;5.68;;;;;;;15.30;100.00;102392.91;5057478;28;20127;-66
2023/09/30 01:10:31;;;;;;;13.65;5.93;;;;;;;15.29;100.00;102394.00;5055754;28;20119;-65
2023/09/30 01:13:19;;;;;;;13.82;6.10;;;;;;;15.29;100.00;102401.41;5034261;28;20125;-65
2023/09/30 01:16:11;;;;;;;15.35;6.25;;;;;;;15.28;100.00;102411.56;5035615;28;20386;-65
2023/09/30 01:18:59;;;;;;;15.52;6.75;;;;;;;15.28;100.00;102414.31;5035993;28;20049;-64
2023/09/30 01:21:48;;;;;;;16.05;6.72;;;;;;;15.27;100.00;102403.59;5025070;28;20126;-66
2023/09/30 01:24:40;;;;;;;14.63;6.30;;;;;;;15.24;100.00;102404.13;5071017;28;20074;-64
2023/09/30 01:27:29;;;;;;;13.02;5.93;;;;;;;15.23;100.00;102422.50;5092073;28;20396;-65
2023/09/30 01:30:18;;;;;;;16.73;6.65;;;;;;;15.21;100.00;102435.66;5092282;28;20044;-64
2023/09/30 01:33:07;;;;;;;14.90;7.07;;;;;;;15.17;100.00;102426.28;5068261;28;20044;-62
2023/09/30 01:35:56;;;;;;;13.23;6.10;;;;;;;15.15;100.00;102431.19;5058377;28;20036;-64
2023/09/30 01:38:44;;;;;;;15.10;7.78;;;;;;;15.16;100.00;102426.56;5057259;28;20049;-64
2023/09/30 01:41:31;;;;;;;14.20;6.40;;;;;;;15.13;100.00;102426.00;5057909;28;20036;-65
2023/09/30 01:44:19;;;;;;;12.65;6.20;;;;;;;15.11;100.00;102424.59;5056863;28;20052;-65
2023/09/30 01:47:08;;;;;;;14.32;6.20;;;;;;;15.12;100.00;102426.25;5058117;28;20090;-65
2023/09/30 01:49:56;;;;;;;16.83;6.55;;;;;;;15.11;100.00;102416.34;5074507;28;20048;-63
2023/09/30 01:52:43;;;;;;;13.30;6.20;;;;;;;15.10;100.00;102412.78;5076190;28;20067;-65
2023/09/30 01:55:35;;;;;;;13.75;6.47;;;;;;;15.11;100.00;102408.13;5076733;28;20040;-64
2023/09/30 01:58:25;;;;;;;13.20;6.47;;;;;;;15.08;100.00;102411.38;5062056;28;20055;-65
2023/09/30 02:01:13;;;;;;;15.73;6.78;;;;;;;15.02;100.00;102409.66;5062088;28;20048;-65
2023/09/30 02:04:01;;;;;;;14.60;6.95;;;;;;;14.98;100.00;102409.34;5060391;28;20047;-64
2023/09/30 02:06:49;;;;;;;12.00;6.20;;;;;;;15.01;100.00;102403.38;5075896;28;20044;-64
2023/09/30 02:09:37;;;;;;;14.38;7.13;;;;;;;15.02;100.00;102406.94;5061521;28;20044;-64
2023/09/30 02:12:28;;;;;;;12.85;5.97;;;;;;;15.01;100.00;102397.00;5061116;28;20052;-65
2023/09/30 02:15:16;;;;;;;13.82;6.60;;;;;;;15.01;100.00;102403.38;5041740;28;20064;-65
2023/09/30 02:18:04;;;;;;;13.55;6.82;;;;;;;15.02;100.00;102409.66;5041277;28;20053;-64
2023/09/30 02:20:53;;;;;;;11.90;6.60;;;;;;;15.01;100.00;102428.06;5061812;28;20040;-64
2023/09/30 02:23:41;;;;;;;14.05;6.63;;;;;;;14.98;100.00;102435.97;5089914;28;20071;-64
2023/09/30 02:26:29;;;;;;;13.93;6.68;;;;;;;14.97;100.00;102428.84;5067486;28;20139;-64
2023/09/30 02:29:17;;;;;;;12.85;6.43;;;;;;;14.98;100.00;102433.22;5027385;28;20060;-65
2023/09/30 02:32:05;;;;;;;13.60;6.32;;;;;;;15.00;100.00;102428.31;5055193;28;20493;-65
2023/09/30 02:34:54;;;;;;;12.43;6.30;;;;;;;15.01;100.00;102425.31;5055264;28;20055;-64
2023/09/30 02:37:42;;;;;;;13.40;6.90;;;;;;;15.00;100.00;102423.66;5068505;28;20060;-64
2023/09/30 02:40:30;;;;;;;13.93;6.72;;;;;;;14.91;100.00;102420.56;5080673;28;20121;-64
2023/09/30 02:43:19;;;;;;;12.63;6.85;;;;;;;14.87;100.00;102422.16;5079086;28;20048;-63
2023/09/30 02:46:09;;;;;;;13.32;6.93;;;;;;;14.79;100.00;102411.66;5080686;28;20055;-63
2023/09/30 02:48:58;;;;;;;15.77;6.70;;;;;;;14.78;100.00;102409.16;5061136;28;20080;-64
2023/09/30 02:51:46;;;;;;;13.07;6.78;;;;;;;14.79;100.00;102410.78;5059313;28;20067;-64
2023/09/30 02:54:34;;;;;;;12.55;6.78;;;;;;;14.80;100.00;102407.78;5052526;28;20048;-64
2023/09/30 02:57:22;;;;;;;14.10;7.32;;;;;;;14.80;100.00;102407.78;5077441;28;20415;-65
2023/09/30 03:00:32;;;;;;;11.88;6.13;;;;;;;14.81;100.00;102405.88;5076001;28;20524;-64
2023/09/30 03:03:19;;;;;;;13.73;6.93;;;;;;;14.81;100.00;102397.66;5075436;28;20047;-65
2023/09/30 03:06:07;;;;;;;14.02;7.00;;;;;;;14.80;100.00;102396.00;5074704;28;20056;-66
2023/09/30 03:08:55;;;;;;;14.75;7.50;;;;;;;14.79;100.00;102405.31;5059973;28;20092;-64
2023/09/30 03:11:43;;;;;;;12.40;6.40;;;;;;;14.74;100.00;102408.00;5074970;28;20059;-64
2023/09/30 03:14:32;;;;;;;15.73;6.75;;;;;;;14.73;100.00;102412.66;5063021;28;20041;-63
2023/09/30 03:17:22;;;;;;;12.60;6.55;;;;;;;14.71;100.00;102409.34;5082378;28;20060;-65
2023/09/30 03:20:14;;;;;;;14.50;6.78;;;;;;;14.72;100.00;102400.03;5064807;28;20131;-63
2023/09/30 03:23:04;;;;;;;11.85;6.38;;;;;;;14.75;100.00;102417.91;5055304;28;20052;-65
2023/09/30 03:25:56;;;;;;;13.20;6.57;;;;;;;14.72;100.00;102419.25;5081729;28;20055;-64
2023/09/30 03:28:46;;;;;;;12.43;6.57;;;;;;;14.70;100.00;102402.22;5074717;28;20093;-64
2023/09/30 03:31:34;;;;;;;11.90;6.57;;;;;;;14.69;100.00;102390.38;5056125;28;20098;-64
2023/09/30 03:34:22;;;;;;;15.07;6.80;;;;;;;14.69;100.00;102389.56;5045484;28;20045;-65
2023/09/30 03:37:10;;;;;;;13.20;6.63;;;;;;;14.68;100.00;102393.41;5066114;28;20056;-66
2023/09/30 03:40:00;;;;;;;14.20;7.07;;;;;;;14.68;100.00;102398.88;5073428;28;20061;-65
2023/09/30 03:42:51;;;;;;;12.68;6.60;;;;;;;14.69;100.00;102406.84;5072978;28;20052;-64
2023/09/30 03:45:39;;;;;;;13.60;6.60;;;;;;;14.71;100.00;102392.88;5074620;28;20045;-62
2023/09/30 03:48:27;;;;;;;13.65;6.82;;;;;;;14.70;100.00;102396.72;5052469;28;20059;-64
2023/09/30 03:51:16;;;;;;;16.45;7.95;;;;;;;14.66;100.00;102404.63;5064007;28;20511;-64
2023/09/30 03:54:04;;;;;;;16.80;7.45;;;;;;;14.65;100.00;102399.41;5058712;28;20044;-63
2023/09/30 03:56:52;;;;;;;12.65;7.55;;;;;;;14.66;100.00;102401.06;5073863;28;20126;-63
2023/09/30 03:59:40;;;;;;;14.43;7.60;;;;;;;14.63;100.00;102396.09;5073182;28;20127;-64
2023/09/30 04:02:28;;;;;;;14.13;6.85;;;;;;;14.64;100.00;102397.72;5071897;28;20579;-65
2023/09/30 04:05:17;;;;;;;15.50;7.70;;;;;;;14.62;100.00;102389.78;5043844;28;20072;-65
2023/09/30 04:08:05;;;;;;;12.75;7.38;;;;;;;14.57;100.00;102392.44;5092424;28;20487;-65
2023/09/30 04:10:53;;;;;;;16.10;8.23;;;;;;;14.51;100.00;102396.19;5079398;28;20531;-63
2023/09/30 04:13:41;;;;;;;13.95;7.07;;;;;;;14.49;100.00;102393.69;5071625;28;20048;-65
2023/09/30 04:16:30;;;;;;;12.27;7.05;;;;;;;14.52;100.00;102395.09;5060814;28;20127;-65
2023/09/30 04:19:18;;;;;;;13.07;7.55;;;;;;;14.52;100.00;102402.50;5092558;28;20094;-65
2023/09/30 04:22:06;;;;;;;15.95;7.82;;;;;;;14.52;100.00;102399.75;5073892;28;20076;-65
2023/09/30 04:24:54;;;;;;;15.85;8.43;;;;;;;14.48;100.00;102408.50;5072275;28;20127;-65
2023/09/30 04:27:47;;;;;;;11.55;6.53;;;;;;;14.44;100.00;102410.09;5093316;28;20052;-65
2023/09/30 04:30:37;;;;;;;16.88;7.90;;;;;;;14.42;100.00;102406.75;5078911;28;20047;-63
2023/09/30 04:33:26;;;;;;;13.15;7.60;;;;;;;14.40;100.00;102402.63;5081346;28;20151;-64
2023/09/30 04:36:14;;;;;;;14.43;7.68;;;;;;;14.37;100.00;102403.97;5081375;28;20511;-65
2023/09/30 04:39:03;;;;;;;16.95;7.65;;;;;;;14.36;100.00;102402.31;5049568;28;20047;-64
2023/09/30 04:41:51;;;;;;;17.77;8.00;;;;;;;14.33;100.00;102408.28;5072371;28;20044;-64
2023/09/30 04:44:41;;;;;;;13.13;7.70;;;;;;;14.31;100.00;102417.84;5072561;28;20082;-65
2023/09/30 04:47:29;;;;;;;14.73;7.68;;;;;;;14.28;100.00;102425.50;5057661;28;20056;-64
2023/09/30 04:50:18;;;;;;;17.40;7.70;;;;;;;14.26;100.00;102426.84;5071555;28;20032;-64
2023/09/30 04:53:06;;;;;;;13.30;7.40;;;;;;;14.24;100.00;102432.59;5057755;28;20045;-63
2023/09/30 04:55:54;;;;;;;11.77;6.93;;;;;;;14.25;100.00;102441.63;5071367;28;20128;-64
2023/09/30 04:58:42;;;;;;;14.80;7.30;;;;;;;14.27;100.00;102423.03;5073272;28;20113;-65
2023/09/30 05:01:30;;;;;;;14.15;7.55;;;;;;;14.30;100.00;102424.44;5029976;28;20063;-63
2023/09/30 05:04:18;;;;;;;14.60;7.80;;;;;;;14.29;100.00;102429.09;5070744;28;20389;-63
2023/09/30 05:07:06;;;;;;;15.43;8.10;;;;;;;14.27;100.00;102428.50;5048946;28;20064;-65
2023/09/30 05:09:54;;;;;;;16.13;8.23;;;;;;;14.23;100.00;102424.59;5024355;28;20047;-65
2023/09/30 05:12:45;;;;;;;14.60;7.60;;;;;;;14.23;100.00;102446.53;5071217;28;20080;-64
2023/09/30 05:15:35;;;;;;;14.30;8.23;;;;;;;14.26;100.00;102446.88;5057704;28;20045;-64
2023/09/30 05:18:24;;;;;;;17.08;8.40;;;;;;;14.25;100.00;102439.72;5070780;28;20377;-65
2023/09/30 05:21:12;;;;;;;15.43;9.00;;;;;;;14.20;100.00;102447.88;5071756;28;20135;-64
2023/09/30 05:24:02;;;;;;;15.15;8.80;;;;;;;14.16;100.00;102443.16;5069319;28;20056;-65
2023/09/30 05:26:50;;;;;;;16.88;8.65;;;;;;;14.18;100.00;102443.72;5058135;28;20094;-64
2023/09/30 05:29:38;;;;;;;14.13;8.27;;;;;;;14.16;100.00;102446.72;5060467;28;20083;-65
2023/09/30 05:32:26;;;;;;;13.35;7.78;;;;;;;14.18;100.00;102450.03;5076372;28;20056;-64
2023/09/30 05:35:16;;;;;;;11.80;7.13;;;;;;;14.21;100.00;102451.44;5068645;28;20041;-64
2023/09/30 05:38:10;;;;;;;13.65;7.60;;;;;;;14.23;100.00;102443.81;5076297;28;20071;-64
2023/09/30 05:40:58;;;;;;;13.73;7.60;;;;;;;14.22;100.00;102448.47;5033900;28;20079;-64
2023/09/30 05:43:47;;;;;;;18.58;8.68;;;;;;;14.14;100.00;102443.41;5046752;28;20585;-63
2023/09/30 05:46:35;;;;;;;15.02;8.10;;;;;;;14.09;100.00;102458.94;5017662;28;20049;-64
2023/09/30 05:49:23;;;;;;;14.23;7.72;;;;;;;14.08;100.00;102455.38;5055578;28;20044;-65
2023/09/30 05:52:12;;;;;;;12.00;7.05;;;;;;;14.13;100.00;102454.63;5071692;28;20073;-65
2023/09/30 05:55:01;;;;;;;13.35;7.70;;;;;;;14.17;100.00;102464.00;5073587;28;20098;-65
2023/09/30 05:57:50;;;;;;;13.88;7.30;;;;;;;14.17;100.00;102458.53;5076160;28;20051;-65
2023/09/30 06:00:40;;;;;;;14.98;7.70;;;;;;;14.15;100.00;102455.22;5075802;28;20040;-64
2023/09/30 06:03:29;;;;;;;15.40;8.10;;;;;;;14.13;100.00;102454.63;5075100;28;20496;-64
2023/09/30 06:06:17;;;;;;;16.67;8.63;;;;;;;14.12;100.00;102451.06;5034115;28;20049;-64
2023/09/30 06:09:07;;;;;;;15.85;8.32;;;;;;;14.13;100.00;102452.72;5055890;28;20067;-62
2023/09/30 06:11:55;;;;;;;14.45;7.53;;;;;;;14.07;100.00;102454.56;5075515;28;20048;-63
2023/09/30 06:14:44;;;;;;;14.40;7.55;;;;;;;14.10;100.00;102446.91;5087630;28;20094;-64
2023/09/30 06:17:33;;;;;;;15.80;9.60;;;;;;;14.07;100.00;102454.56;5045252;28;20114;-64
2023/09/30 06:20:22;;;;;;;19.17;9.70;;;;;;;14.03;100.00;102455.31;5081044;28;20045;-65
2023/09/30 06:23:10;;;;;;;15.80;9.25;;;;;;;14.02;100.00;102465.44;5077876;28;20409;-64
2023/09/30 06:26:02;;;;;;;17.25;10.10;;;;;;;14.01;100.00;102458.28;5074583;28;20059;-63
2023/09/30 06:28:53;;;;;;;16.55;10.07;;;;;;;14.01;100.00;102450.06;5061801;28;20098;-65
2023/09/30 06:31:41;;;;;;;18.52;9.25;;;;;;;14.02;100.00;102448.16;5080493;28;20068;-65
2023/09/30 06:34:30;;;;;;;16.92;10.10;;;;;;;13.98;100.00;102438.78;5073070;28;20044;-65
2023/09/30 06:37:18;;;;;;;21.02;9.77;;;;;;;13.96;100.00;102436.28;5065719;28;20109;-64
2023/09/30 06:40:08;;;;;;;16.52;10.18;;;;;;;13.97;100.00;102454.38;5065604;28;20052;-64
2023/09/30 06:42:57;;;;;;;16.88;10.02;;;;;;;13.96;100.00;102460.97;5054791;28;20040;-64
2023/09/30 06:45:46;;;;;;;16.30;9.68;;;;;;;13.95;100.00;102462.06;5061291;28;20040;-63
2023/09/30 06:48:35;;;;;;;18.33;9.95;;;;;;;13.98;100.00;102466.19;5060335;28;20044;-65
2023/09/30 06:51:23;;;;;;;15.18;8.95;;;;;;;14.05;100.00;102467.69;5076014;28;20496;-64
2023/09/30 06:54:12;;;;;;;16.73;8.82;;;;;;;14.10;100.00;102474.31;5053400;28;20049;-63
2023/09/30 06:57:00;;;;;;;19.15;8.85;;;;;;;14.14;100.00;102486.44;5076300;28;20040;-65
2023/09/30 06:59:48;;;;;;;15.95;8.73;;;;;;;14.17;100.00;102485.94;5088908;28;20052;-64
2023/09/30 07:02:37;;;;;;;20.15;9.90;;;;;;;14.18;100.00;102504.03;5072891;28;20123;-64
2023/09/30 07:05:25;;;;;;;17.85;8.90;;;;;;;14.20;100.00;102507.38;5075330;28;20130;-64
2023/09/30 07:08:13;;;;;;;16.40;9.00;;;;;;;14.19;100.00;102517.50;5074142;28;20067;-64
2023/09/30 07:11:01;;;;;;;18.23;9.15;;;;;;;14.18;100.00;102517.75;5062498;28;20456;-62
2023/09/30 07:13:50;;;;;;;15.77;9.10;;;;;;;14.18;100.00;102506.78;5069567;28;20119;-63
2023/09/30 07:16:39;;;;;;;16.17;8.50;;;;;;;14.22;100.00;102510.69;5092453;28;20126;-64
2023/09/30 07:19:27;;;;;;;20.25;9.40;;;;;;;14.24;100.00;102516.75;5092733;28;20050;-63
2023/09/30 07:22:15;;;;;;;20.45;9.23;;;;;;;14.24;100.00;102520.31;5045300;28;20116;-63
2023/09/30 07:25:16;;;;;;;17.90;9.25;;;;;;;14.26;100.00;102509.94;5060668;28;20044;-65
2023/09/30 07:28:04;;;;;;;17.33;9.70;;;;;;;14.31;100.00;102516.56;5069685;28;20471;-64
2023/09/30 07:30:54;;;;;;;20.98;10.27;;;;;;;14.35;100.00;102529.53;5071019;28;20055;-64
2023/09/30 07:33:42;;;;;;;22.55;10.70;;;;;;;14.36;100.00;102544.91;5051795;28;20447;-65
2023/09/30 07:36:31;;;;;;;18.20;9.80;;;;;;;14.39;100.00;102549.06;5039400;28;20045;-64
2023/09/30 07:39:20;;;;;;;22.17;10.35;;;;;;;14.38;100.00;102545.50;5040036;28;20126;-64
2023/09/30 07:42:09;;;;;;;20.15;9.90;;;;;;;14.40;100.00;102556.19;5075878;28;20055;-64
2023/09/30 07:44:57;;;;;;;18.10;9.60;;;;;;;14.42;100.00;102562.25;5072387;28;20127;-64
2023/09/30 07:47:49;;;;;;;17.52;9.48;;;;;;;14.42;100.00;102557.59;5056859;28;20056;-64
2023/09/30 07:50:38;;;;;;;22.15;9.82;;;;;;;14.44;100.00;102568.34;5058983;28;20519;-63
2023/09/30 07:53:27;;;;;;;19.50;10.48;;;;;;;14.46;100.00;102561.50;5074134;28;20048;-64
2023/09/30 07:56:15;;;;;;;20.30;9.98;;;;;;;14.49;100.00;102554.69;5045269;28;20040;-64
2023/09/30 07:59:05;;;;;;;21.88;9.48;;;;;;;14.53;100.00;102555.00;5072619;28;20040;-62
2023/09/30 08:01:53;;;;;;;19.45;9.52;;;;;;;14.59;100.00;102554.84;5062164;28;20051;-63
2023/09/30 08:04:41;;;;;;;18.27;8.95;;;;;;;14.63;100.00;102550.53;5058303;28;20055;-62
2023/09/30 08:07:29;;;;;;;20.10;8.95;;;;;;;14.67;100.00;102548.09;5058452;28;20063;-62
2023/09/30 08:10:17;;;;;;;16.75;8.45;;;;;;;14.69;100.00;102549.50;5040187;28;20059;-60
2023/09/30 08:13:05;;;;;;;18.20;8.88;;;;;;;14.73;100.00;102547.09;5059528;28;20150;-64
2023/09/30 08:15:53;;;;;;;21.75;9.52;;;;;;;14.77;100.00;102548.25;5072609;28;20051;-64
2023/09/30 08:18:41;;;;;;;21.35;8.68;;;;;;;14.80;100.00;102545.00;5044934;28;20211;-65
2023/09/30 08:21:30;;;;;;;19.05;8.57;;;;;;;14.84;100.00;102540.69;5074235;28;20424;-64
2023/09/30 08:24:18;;;;;;;18.95;7.97;;;;;;;14.85;100.00;102547.81;5072020;28;20055;-65
2023/09/30 08:27:06;;;;;;;18.05;8.32;;;;;;;14.88;100.00;102536.31;5070133;28;20048;-64
2023/09/30 08:29:54;;;;;;;19.48;8.20;;;;;;;14.90;100.00;102533.31;5059453;28;20048;-63
2023/09/30 08:32:42;;;;;;;18.20;7.43;;;;;;;14.95;100.00;102532.56;5058485;28;20065;-63
2023/09/30 08:35:39;;;;;;;18.02;7.88;;;;;;;14.97;100.00;102516.66;5056222;28;20724;-64
2023/09/30 08:38:27;;;;;;;17.13;7.40;;;;;;;15.01;100.00;102517.78;5061913;28;20048;-64
2023/09/30 08:41:32;;;;;;;15.48;6.90;;;;;;;15.04;100.00;102528.28;5092182;28;20124;-64
2023/09/30 08:44:20;;;;;;;17.27;7.72;;;;;;;15.07;100.00;102528.59;5052358;28;20056;-63
2023/09/30 08:47:09;;;;;;;16.50;7.10;;;;;;;15.09;100.00;102525.59;5061349;28;20119;-65
2023/09/30 08:50:05;;;;;;;17.52;7.40;;;;;;;15.11;100.00;102528.91;5068908;28;20488;-64
2023/09/30 08:52:54;;;;;;;16.48;7.30;;;;;;;15.13;100.00;102532.25;5061671;28;20496;-64
2023/09/30 08:55:44;;;;;;;15.60;6.95;;;;;;;15.15;100.00;102521.81;5045396;28;20424;-65
2023/09/30 08:58:33;;;;;;;17.85;7.97;;;;;;;15.16;100.00;102515.25;5062021;28;20071;-65
2023/09/30 09:01:21;;;;;;;19.55;7.40;;;;;;;15.20;100.00;102516.41;5060369;28;20040;-65
2023/09/30 09:04:09;;;;;;;15.65;7.15;;;;;;;15.24;100.00;102523.00;5055227;28;20052;-65
2023/09/30 09:06:57;;;;;;;17.45;7.20;;;;;;;15.29;100.00;102530.47;5074171;28;20048;-64
2023/09/30 09:10:08;;;;;;;16.83;6.78;;;;;;;15.33;100.00;102537.94;5073765;28;20033;-64
2023/09/30 09:12:58;;;;;;;17.17;7.18;;;;;;;15.36;100.00;102530.28;5053506;28;20045;-64
2023/09/30 09:15:46;;;;;;;17.25;7.20;;;;;;;15.37;100.00;102543.78;5070645;28;20067;-64
2023/09/30 09:18:35;;;;;;;19.17;7.38;;;;;;;15.39;100.00;102549.00;5083098;28;20530;-64
2023/09/30 09:21:26;;;;;;;15.85;7.55;;;;;;;15.42;100.00;102554.00;5064000;28;20048;-64
2023/09/30 09:24:27;;;;;;;14.20;7.15;;;;;;;15.45;100.00;102550.72;5057633;28;20141;-63
2023/09/30 09:27:16;;;;;;;18.90;8.80;;;;;;;15.48;100.00;102561.19;5075685;28;20044;-64
2023/09/30 09:30:15;;;;;;;17.05;6.72;;;;;;;15.50;100.00;102556.25;5075039;28;20041;-64
2023/09/30 09:33:05;;;;;;;17.45;6.30;;;;;;;15.54;100.00;102562.91;5072332;28;20098;-64
2023/09/30 09:35:53;;;;;;;15.07;7.18;;;;;;;15.55;100.00;102572.78;5051476;28;20048;-65
2023/09/30 09:38:49;;;;;;;16.70;6.45;;;;;;;15.61;100.00;102574.53;5062192;28;20045;-64
2023/09/30 09:41:51;;;;;;;18.90;7.10;;;;;;;15.69;100.00;102585.03;5057318;28;20052;-64
2023/09/30 09:44:40;;;;;;;14.80;5.82;;;;;;;15.71;100.00;102588.38;5057815;28;20049;-64
2023/09/30 09:47:30;;;;;;;13.02;5.50;;;;;;;15.74;100.00;102585.13;5044280;28;20075;-66
2023/09/30 09:50:19;;;;;;;11.18;5.38;;;;;;;15.77;100.00;102587.34;5082302;28;20049;-64
2023/09/30 09:53:10;;;;;;;13.80;5.45;;;;;;;15.79;100.00;102583.50;5050687;28;20052;-64
2023/09/30 09:56:01;;;;;;;17.55;6.45;;;;;;;15.80;100.00;102588.72;5071189;28;20037;-63
2023/09/30 09:58:49;;;;;;;16.77;6.53;;;;;;;15.82;100.00;102574.75;5071376;28;20075;-65
2023/09/30 10:01:39;;;;;;;20.50;7.25;;;;;;;15.84;100.00;102578.88;5058636;28;20048;-63
2023/09/30 10:04:27;;;;;;;16.25;6.53;;;;;;;15.91;100.00;102589.66;5071988;28;20048;-64
2023/09/30 10:07:26;;;;;;;21.90;7.78;;;;;;;16.00;100.00;102585.38;5071550;28;20041;-64
2023/09/30 10:10:17;;;;;;;16.05;7.18;;;;;;;16.00;100.00;102581.78;5057584;28;20123;-65
2023/09/30 10:13:05;;;;;;;16.45;7.35;;;;;;;15.99;100.00;102586.44;5060532;28;20048;-66
2023/09/30 10:15:54;;;;;;;23.90;7.88;;;;;;;16.04;100.00;102591.16;5067711;28;20056;-65
2023/09/30 10:19:15;;;;;;;20.98;7.60;;;;;;;16.06;100.00;102595.28;5062061;28;20063;-65
2023/09/30 10:22:24;;;;;;;17.75;7.03;;;;;;;16.11;100.00;102602.75;5038923;28;20563;-65
2023/09/30 10:25:35;;;;;;;19.38;7.55;;;;;;;16.13;100.00;102595.91;5077413;28;20051;-66
2023/09/30 10:28:37;;;;;;;21.60;6.90;;;;;;;16.16;100.00;102584.41;5054582;28;20048;-66
2023/09/30 10:31:26;;;;;;;19.77;8.18;;;;;;;16.22;100.00;102578.94;5060902;28;20135;-66
2023/09/30 10:34:20;;;;;;;15.73;6.35;;;;;;;16.26;100.00;102578.16;5042478;28;20067;-66
2023/09/30 10:37:24;;;;;;;17.37;7.53;;;;;;;16.27;100.00;102563.31;5079626;28;20089;-65
2023/09/30 10:40:29;;;;;;;16.23;7.32;;;;;;;16.29;100.00;102549.28;5042088;28;20048;-66
2023/09/30 10:43:33;;;;;;;15.23;6.40;;;;;;;16.30;100.00;102556.44;5028776;28;20068;-65
2023/09/30 10:46:27;;;;;;;20.87;7.17;;;;;;;16.36;100.00;102549.91;5068707;28;20051;-66
2023/09/30 10:49:35;;;;;;;14.65;7.07;;;;;;;16.39;100.00;102549.34;5074395;28;20071;-65
2023/09/30 10:52:24;;;;;;;13.65;6.28;;;;;;;16.44;100.00;102554.88;5060559;28;20053;-65
2023/09/30 10:55:19;;;;;;;20.02;8.90;;;;;;;16.49;100.00;102549.41;5059456;28;20044;-65
2023/09/30 10:58:07;;;;;;;16.85;7.03;;;;;;;16.55;100.00;102548.38;5060969;28;20040;-64
2023/09/30 11:00:55;;;;;;;17.08;6.95;;;;;;;16.56;100.00;102550.00;5074340;28;20054;-64
2023/09/30 11:03:45;;;;;;;18.60;7.00;;;;;;;16.59;100.00;102545.88;5060474;28;20052;-64
2023/09/30 11:06:34;;;;;;;18.23;6.82;;;;;;;16.65;100.00;102550.34;5040726;28;20497;-64
2023/09/30 11:09:23;;;;;;;16.23;7.22;;;;;;;16.69;100.00;102548.72;5057650;28;20063;-64
2023/09/30 11:12:15;;;;;;;11.70;5.70;;;;;;;16.71;100.00;102545.69;5060928;28;20044;-63
2023/09/30 11:15:04;;;;;;;16.75;6.93;;;;;;;16.73;100.00;102543.50;5074874;28;20141;-64
2023/09/30 11:17:53;;;;;;;19.65;7.35;;;;;;;16.73;100.00;102549.00;5085956;28;20477;-64
2023/09/30 11:20:41;;;;;;;15.90;7.00;;;;;;;16.69;100.00;102548.72;5071617;28;20048;-64
2023/09/30 11:23:30;;;;;;;20.98;7.05;;;;;;;16.68;100.00;102555.31;5057538;28;20049;-65
2023/09/30 11:26:32;;;;;;;16.58;6.32;;;;;;;16.65;100.00;102555.84;5057727;28;20419;-65
2023/09/30 11:29:21;;;;;;;16.27;6.78;;;;;;;16.65;100.00;102555.03;5041113;28;20120;-65
2023/09/30 11:32:09;;;;;;;16.45;6.38;;;;;;;16.66;100.00;102548.41;5071086;28;20114;-65
2023/09/30 11:34:57;;;;;;;16.30;6.57;;;;;;;16.68;100.00;102551.72;5058373;28;20080;-66
2023/09/30 11:37:46;;;;;;;12.93;5.53;;;;;;;16.68;100.00;102541.53;5064366;28;20049;-64
2023/09/30 11:40:34;;;;;;;15.43;6.40;;;;;;;16.67;100.00;102537.16;5089697;28;20048;-64
2023/09/30 11:43:23;;;;;;;14.30;5.75;;;;;;;16.67;100.00;102528.88;5073281;28;20579;-64
2023/09/30 11:46:13;;;;;;;17.77;6.10;;;;;;;16.69;100.00;102520.34;5074382;28;20493;-63
2023/09/30 11:49:04;;;;;;;16.17;6.63;;;;;;;16.68;100.00;102522.28;5072571;28;20059;-64
2023/09/30 11:51:53;;;;;;;17.08;5.93;;;;;;;16.68;100.00;102519.53;5074854;28;20136;-64
2023/09/30 11:54:43;;;;;;;13.43;5.70;;;;;;;16.68;100.00;102513.19;5059132;28;20055;-64
2023/09/30 11:57:32;;;;;;;16.50;5.25;;;;;;;16.69;100.00;102517.59;5057197;28;20045;-63
2023/09/30 12:00:20;;;;;;;14.73;5.85;;;;;;;16.71;100.00;102527.25;5073625;28;20567;-64
2023/09/30 12:03:08;;;;;;;12.65;5.18;;;;;;;16.71;100.00;102541.00;5074139;28;20118;-64
2023/09/30 12:06:00;;;;;;;15.50;5.72;;;;;;;16.73;99.83;102538.00;5059351;28;20494;-65
2023/09/30 12:08:48;;;;;;;15.07;6.18;;;;;;;16.74;97.34;102539.63;5071441;28;20412;-66
2023/09/30 12:11:36;;;;;;;13.30;5.40;;;;;;;16.78;96.38;102536.13;5074298;28;20131;-65
2023/09/30 12:14:25;;;;;;;14.30;5.05;;;;;;;16.86;97.10;102539.44;5058893;28;20052;-63
2023/09/30 12:17:14;;;;;;;15.75;5.35;;;;;;;16.92;96.26;102541.97;5090383;28;20086;-64
2023/09/30 12:20:03;;;;;;;16.42;4.85;;;;;;;16.97;95.51;102532.91;5077350;28;20048;-65
2023/09/30 12:22:53;;;;;;;13.82;4.65;;;;;;;17.01;91.47;102528.53;5059179;28;20052;-64
2023/09/30 12:25:42;;;;;;;13.82;4.35;;;;;;;17.08;91.24;102525.50;5072418;28;20098;-66
2023/09/30 12:28:31;;;;;;;14.85;5.10;;;;;;;17.11;86.84;102513.94;5078380;28;20048;-63
2023/09/30 12:31:21;;;;;;;10.57;4.43;;;;;;;17.09;86.41;102505.13;5073050;28;20037;-64
2023/09/30 12:34:12;;;;;;;18.65;6.57;;;;;;;17.25;100.00;102493.06;5073645;28;20123;-65
2023/09/30 12:37:00;;;;;;;16.55;6.60;;;;;;;17.36;100.00;102491.97;5045326;28;20076;-65
2023/09/30 12:39:48;;;;;;;14.75;4.65;;;;;;;17.29;97.21;102485.88;5058759;28;20041;-65
2023/09/30 12:42:36;;;;;;;13.45;4.30;;;;;;;17.20;86.07;102473.78;5060715;28;20044;-64
2023/09/30 12:45:24;;;;;;;14.48;4.43;;;;;;;17.22;82.60;102468.78;5078326;28;20044;-64
2023/09/30 12:48:12;;;;;;;12.18;4.20;;;;;;;17.22;80.90;102482.56;5072628;28;20134;-66
2023/09/30 12:51:00;;;;;;;10.98;4.20;;;;;;;17.20;81.09;102482.84;5065506;28;20134;-64